Onde está Esperança, Lisboa en Portugal?

Esperança está situado na região Lisboa em Portugal!

Buscar o nome de uma cidade:

Espejel, Esperanza, Espérance, Esperanza, Espegi

Aqui você vai encontrar a localização de Esperança em um mapa.
Para ver como ele atualmente parece, abaixo estão algumas fotos da região, com webcams online.
Você também pode encontrar a distância para as principais cidades da região e de cidades do resto do Portugal.

4 lugares nomeadas Esperança na Portugal.

Todos os lugares do mundo chamado .

new

Onde está Esperança no mapa?


Webcams perto Esperança

Benavente > North-East: AIrport, METAR: BENAV 180005Z 36004KT 17/14 Q1015.


Benavente > North-East: AIrport, METAR: BENAV 180005Z 36004KT 17/14 Q1015 - Dia
Actual
Benavente > North-East: AIrport, METAR: BENAV 180005Z 36004KT 17/14 Q1015 - Actual

Vasco Carão > South: Garrocheira, Benavente - Airport.


Vasco Carão > South: Garrocheira, Benavente - Airport - Dia
Actual
Vasco Carão > South: Garrocheira, Benavente - Airport - Actual

Lisbon > South: Rua Vasco da Gama.


Lisbon > South: Rua Vasco da Gama - Dia
Actual
Lisbon > South: Rua Vasco da Gama - Actual

Webcams provided by webcams.travel

Distâncias

Onde está Esperança em relação a outros lugares?

Top 10 cidades em Lisboa e distância de Esperança.

Cidade#Populaçãokmmilhas
Lisbon15177983924
Amadora21788564226
Queluz31033984226
Loures4662303220
Rio de Mouro5546954729
Odivelas6546233522
São Domingos de Rana7467175132
Cascais8364365836
Alcabideche9333155534
Póvoa de Santa Iria10289002314

Top 10 cidades em Portugal e distância de Esperança.

Cidade # Populaçãokmmilhas
Lisbon15177983924
Porto2249630240149
Amadora31788564226
Braga4121393286178
Setúbal51171095132
Coimbra610658014087
Queluz71033984226
Funchal8980411012629
Vila Nova de Gaia970810238148
Loures10662303220